Startpagina
METAR-TAF:

METAR-TAF

Vliegvelden :

Skelton Airport

Eureka, Alaska, Verenigde Staten

breedte: 61-56N, lengte: 147-10W, hoogte: 1002 m

Actueel weer

Dit bericht is 3 uur en het 31 minuten geleden gemaakt, om 09:56 UTC
Wind 4 kt uit het zuidwesten
Temperatuur 7°C
Vochtigheid 93%
Druk 1015 hPa
Zicht: 16.1 km
Gebroken wolken op 4300 ft
Gebroken wolken op 6000 ft
lichte regen

METAR: PAZK 170956Z AUTO 22004KT 10SM -RA BKN043 BKN060 07/06 A2996 RMK AO2 SLP166 P0000 T00670056

Tijdstip: 05:27 (13:27 UTC)


TAF: ontbreekt

Waarnemingen en weersverwachtingen van meer dan 4000 vliegvelden (METAR en TAF).

De beschikbare stations zijn de gele en rode punten op de kaart.

Ga met uw muis naar het station om de naam te zien.

Klik dan om waarnemingen en weersverwachtingen te zien.

kaart wijzigen: klik op de groene knoppen met een zwart kruis om in te zoomen, op de groene knop met een streepje om uit te zoomen of op de groene pijlen voor aangrenzende kaarten.


METAR-TAF: